Time;durP1;ratioP1;P1;durP2;ratioP2;P2;SDS_P1;SDS_P2;PMS_P1;PMS_P2;Temp;Humidity;BMP_temperature;BMP_pressure;BME280_temperature;BME280_humidity;BME280_pressure;Samples;Min_cycle;Max_cycle;Signal;HPM_P1;HPM_P2
2024/04/04 00:00:24;;;;;;;10.77;10.57;;;;;;;;;;5069511;28;20464;-70
2024/04/04 00:02:52;;;;;;;11.30;11.00;;;;;;;;;;5049447;28;20683;-71
2024/04/04 00:05:18;;;;;;;11.40;11.10;;;;;;;;;;5051498;28;20473;-72
2024/04/04 00:07:45;;;;;;;11.43;11.13;;;;;;;;;;5047987;28;20466;-70
2024/04/04 00:10:11;;;;;;;11.40;11.10;;;;;;;;;;5050985;28;20462;-70
2024/04/04 00:12:40;;;;;;;11.30;11.00;;;;;;;;;;5050983;28;20751;-71
2024/04/04 00:15:08;;;;;;;11.60;11.30;;;;;;;;;;5068682;28;20446;-71
2024/04/04 00:17:35;;;;;;;11.47;11.17;;;;;;;;;;5070733;28;20986;-70
2024/04/04 00:20:01;;;;;;;11.50;11.20;;;;;;;;;;5070162;28;20460;-71
2024/04/04 00:22:29;;;;;;;11.80;11.50;;;;;;;;;;5069889;28;20533;-69
2024/04/04 00:24:55;;;;;;;11.10;10.80;;;;;;;;;;5069261;28;20467;-70
2024/04/04 00:27:23;;;;;;;11.53;11.23;;;;;;;;;;5068577;28;20467;-71
2024/04/04 00:29:49;;;;;;;12.13;11.83;;;;;;;;;;5068579;28;20941;-69
2024/04/04 00:32:19;;;;;;;11.83;11.53;;;;;;;;;;5070706;28;20971;-70
2024/04/04 00:34:45;;;;;;;11.83;11.53;;;;;;;;;;5070666;28;20474;-71
2024/04/04 00:37:12;;;;;;;11.83;11.53;;;;;;;;;;5069263;28;20474;-70
2024/04/04 00:39:38;;;;;;;11.70;11.40;;;;;;;;;;5069729;28;21487;-70
2024/04/04 00:42:05;;;;;;;12.67;12.27;;;;;;;;;;5071151;28;20915;-71
2024/04/04 00:44:32;;;;;;;12.70;12.30;;;;;;;;;;5069717;28;20600;-69
2024/04/04 00:46:59;;;;;;;12.30;12.00;;;;;;;;;;5071044;28;20523;-70
2024/04/04 00:49:26;;;;;;;12.17;11.87;;;;;;;;;;5069648;28;20568;-71
2024/04/04 00:51:54;;;;;;;12.43;12.13;;;;;;;;;;5069136;28;21017;-71
2024/04/04 00:54:20;;;;;;;12.03;11.73;;;;;;;;;;5070180;28;20463;-71
2024/04/04 00:56:47;;;;;;;11.93;11.63;;;;;;;;;;5069549;28;20462;-70
2024/04/04 00:59:14;;;;;;;12.23;11.93;;;;;;;;;;5069546;28;21303;-70
2024/04/04 01:01:42;;;;;;;12.20;11.90;;;;;;;;;;5099897;28;20462;-71
2024/04/04 01:04:08;;;;;;;12.33;12.03;;;;;;;;;;5105813;28;20952;-69
2024/04/04 01:06:37;;;;;;;12.00;11.70;;;;;;;;;;5108033;28;20476;-69
2024/04/04 01:09:03;;;;;;;12.67;12.27;;;;;;;;;;5106021;28;20458;-70
2024/04/04 01:11:31;;;;;;;12.13;11.83;;;;;;;;;;5099596;28;20835;-71
2024/04/04 01:13:57;;;;;;;12.17;11.87;;;;;;;;;;5107740;28;20465;-69
2024/04/04 01:16:25;;;;;;;13.07;12.67;;;;;;;;;;5108027;28;20457;-70
2024/04/04 01:18:51;;;;;;;12.40;12.10;;;;;;;;;;5108430;28;20461;-69
2024/04/04 01:21:18;;;;;;;12.50;12.20;;;;;;;;;;5105049;28;20535;-71
2024/04/04 01:23:46;;;;;;;12.80;12.40;;;;;;;;;;5100822;28;20517;-69
2024/04/04 01:26:14;;;;;;;12.90;12.50;;;;;;;;;;5102408;28;20912;-68
2024/04/04 01:28:40;;;;;;;12.63;12.23;;;;;;;;;;5103189;28;20458;-69
2024/04/04 01:31:08;;;;;;;13.00;12.60;;;;;;;;;;5106762;28;20899;-69
2024/04/04 01:33:35;;;;;;;12.50;12.17;;;;;;;;;;5105452;28;20520;-70
2024/04/04 01:36:02;;;;;;;12.93;12.53;;;;;;;;;;5104892;28;20471;-69
2024/04/04 01:38:28;;;;;;;12.20;11.90;;;;;;;;;;5106908;28;20465;-69
2024/04/04 01:40:56;;;;;;;12.20;11.90;;;;;;;;;;5104629;28;20540;-69
2024/04/04 01:43:22;;;;;;;12.27;11.97;;;;;;;;;;5097938;28;20488;-70
2024/04/04 01:45:49;;;;;;;12.70;12.30;;;;;;;;;;5102880;28;20462;-70
2024/04/04 01:48:16;;;;;;;12.07;11.77;;;;;;;;;;5098287;28;20465;-70
2024/04/04 01:50:43;;;;;;;12.63;12.27;;;;;;;;;;5098918;28;20976;-69
2024/04/04 01:53:09;;;;;;;11.90;11.60;;;;;;;;;;5104684;28;20457;-72
2024/04/04 01:55:36;;;;;;;12.60;12.23;;;;;;;;;;5099762;28;20463;-69
2024/04/04 01:58:04;;;;;;;13.13;12.73;;;;;;;;;;5102562;28;20476;-70
2024/04/04 02:00:31;;;;;;;12.27;11.97;;;;;;;;;;5099864;28;20466;-71
2024/04/04 02:02:58;;;;;;;12.70;12.30;;;;;;;;;;5101419;28;20908;-71
2024/04/04 02:05:26;;;;;;;12.00;11.70;;;;;;;;;;5099902;28;20458;-70
2024/04/04 02:07:52;;;;;;;12.30;11.97;;;;;;;;;;5099967;28;20853;-68
2024/04/04 02:10:19;;;;;;;11.70;11.40;;;;;;;;;;5099651;28;20959;-69
2024/04/04 02:12:45;;;;;;;12.23;11.93;;;;;;;;;;5107126;28;20488;-71
2024/04/04 02:15:15;;;;;;;13.80;13.30;;;;;;;;;;5103882;28;20486;-70
2024/04/04 02:17:41;;;;;;;15.40;14.80;;;;;;;;;;5105371;28;20465;-69
2024/04/04 02:20:10;;;;;;;16.00;15.30;;;;;;;;;;5105575;28;20794;-71
2024/04/04 02:22:37;;;;;;;16.80;16.00;;;;;;;;;;5095043;28;20852;-69
2024/04/04 02:25:05;;;;;;;17.97;17.07;;;;;;;;;;5107204;28;20459;-69
2024/04/04 02:27:33;;;;;;;20.00;18.80;;;;;;;;;;5100340;28;20476;-68
2024/04/04 02:30:00;;;;;;;20.40;19.10;;;;;;;;;;5105276;28;20461;-71
2024/04/04 02:32:28;;;;;;;20.27;18.97;;;;;;;;;;5112041;27;20458;-70
2024/04/04 02:34:56;;;;;;;19.27;18.07;;;;;;;;;;5103078;28;20470;-71
2024/04/04 02:37:23;;;;;;;18.90;17.80;;;;;;;;;;5101591;28;20967;-69
2024/04/04 02:39:51;;;;;;;17.73;16.83;;;;;;;;;;5103535;28;20516;-70
2024/04/04 02:42:17;;;;;;;17.20;16.30;;;;;;;;;;5110493;28;20477;-70
2024/04/04 02:44:44;;;;;;;18.13;17.23;;;;;;;;;;5104360;28;20546;-70
2024/04/04 02:47:10;;;;;;;17.50;16.70;;;;;;;;;;5110796;28;20455;-70
2024/04/04 02:49:38;;;;;;;16.97;16.17;;;;;;;;;;5100198;28;20556;-70
2024/04/04 02:52:05;;;;;;;17.30;16.50;;;;;;;;;;5101829;28;20461;-71
2024/04/04 02:54:32;;;;;;;17.40;16.60;;;;;;;;;;5109342;28;20462;-70
2024/04/04 02:56:59;;;;;;;17.73;16.93;;;;;;;;;;5104160;28;20459;-69
2024/04/04 02:59:26;;;;;;;16.97;16.27;;;;;;;;;;5103512;28;20470;-71
2024/04/04 03:01:53;;;;;;;18.20;17.40;;;;;;;;;;5106812;28;20457;-70
2024/04/04 03:04:20;;;;;;;17.77;17.07;;;;;;;;;;5105366;28;20921;-72
2024/04/04 03:06:51;;;;;;;17.33;16.63;;;;;;;;;;5102801;28;20465;-70
2024/04/04 03:09:18;;;;;;;17.47;16.77;;;;;;;;;;5103047;28;20463;-71
2024/04/04 03:11:45;;;;;;;17.67;16.97;;;;;;;;;;5105697;28;20511;-71
2024/04/04 03:14:13;;;;;;;16.70;16.10;;;;;;;;;;5110690;28;20488;-70
2024/04/04 03:16:39;;;;;;;17.47;16.77;;;;;;;;;;5102130;28;20458;-71
2024/04/04 03:19:07;;;;;;;16.90;16.30;;;;;;;;;;5110617;28;20472;-71
2024/04/04 03:21:33;;;;;;;16.87;16.27;;;;;;;;;;5109726;28;20950;-71
2024/04/04 03:24:01;;;;;;;16.57;15.97;;;;;;;;;;5106830;28;20482;-71
2024/04/04 03:26:28;;;;;;;16.83;16.23;;;;;;;;;;5100775;28;20464;-71
2024/04/04 03:28:55;;;;;;;17.27;16.67;;;;;;;;;;5105081;28;20972;-70
2024/04/04 03:31:21;;;;;;;16.60;16.00;;;;;;;;;;5099622;28;20558;-71
2024/04/04 03:33:48;;;;;;;17.53;16.93;;;;;;;;;;5108038;28;20620;-70
2024/04/04 03:36:15;;;;;;;17.67;17.07;;;;;;;;;;5109688;28;20453;-70
2024/04/04 03:38:43;;;;;;;16.77;16.17;;;;;;;;;;5110371;28;20857;-70
2024/04/04 03:41:12;;;;;;;16.70;16.10;;;;;;;;;;5102674;28;20458;-71
2024/04/04 03:43:39;;;;;;;17.13;16.53;;;;;;;;;;5108690;28;20488;-70
2024/04/04 03:46:06;;;;;;;17.33;16.73;;;;;;;;;;5100385;28;20471;-70
2024/04/04 03:48:35;;;;;;;17.00;16.40;;;;;;;;;;5103081;28;20454;-72
2024/04/04 03:51:02;;;;;;;16.40;15.90;;;;;;;;;;5110677;28;20473;-71
2024/04/04 03:53:28;;;;;;;17.53;16.93;;;;;;;;;;5101789;28;20446;-70
2024/04/04 03:55:55;;;;;;;15.93;15.43;;;;;;;;;;5109995;28;20471;-72
2024/04/04 03:58:22;;;;;;;16.33;15.83;;;;;;;;;;5110370;28;20480;-71
2024/04/04 04:00:49;;;;;;;16.63;16.03;;;;;;;;;;5105274;28;20460;-73
2024/04/04 04:03:16;;;;;;;17.27;16.67;;;;;;;;;;5096507;28;20495;-70
2024/04/04 04:05:43;;;;;;;17.33;16.73;;;;;;;;;;5095290;28;20471;-71
2024/04/04 04:08:09;;;;;;;16.33;15.83;;;;;;;;;;5108535;28;20867;-71
2024/04/04 04:10:37;;;;;;;16.53;15.93;;;;;;;;;;5105058;28;20550;-71
2024/04/04 04:13:04;;;;;;;16.87;16.27;;;;;;;;;;5106834;28;20498;-72
2024/04/04 04:15:32;;;;;;;17.17;16.57;;;;;;;;;;5105790;28;20465;-73
2024/04/04 04:17:58;;;;;;;16.23;15.67;;;;;;;;;;5104430;28;20454;-71
2024/04/04 04:23:10;;;;;;;16.87;16.27;;;;;;;;;;5100433;28;20493;-71
2024/04/04 04:25:37;;;;;;;17.17;16.57;;;;;;;;;;5107282;28;20458;-71
2024/04/04 04:28:04;;;;;;;16.90;16.30;;;;;;;;;;5108350;28;20453;-71
2024/04/04 04:30:31;;;;;;;16.17;15.67;;;;;;;;;;5107307;28;20462;-71
2024/04/04 04:33:01;;;;;;;17.13;16.53;;;;;;;;;;5098245;28;20472;-71
2024/04/04 04:35:27;;;;;;;16.93;16.33;;;;;;;;;;5097802;28;20827;-70
2024/04/04 04:37:54;;;;;;;17.00;16.40;;;;;;;;;;5094290;28;20874;-71
2024/04/04 04:40:20;;;;;;;16.83;16.23;;;;;;;;;;5106272;28;20458;-71
2024/04/04 04:42:47;;;;;;;16.73;16.13;;;;;;;;;;5104707;28;20482;-70
2024/04/04 04:45:14;;;;;;;16.63;16.03;;;;;;;;;;5107208;28;20454;-70
2024/04/04 04:47:42;;;;;;;16.83;16.23;;;;;;;;;;5096809;28;20471;-71
2024/04/04 04:50:09;;;;;;;16.90;16.30;;;;;;;;;;5100660;28;20507;-70
2024/04/04 04:52:36;;;;;;;16.53;15.93;;;;;;;;;;5102798;28;20464;-71
2024/04/04 04:55:05;;;;;;;16.50;15.90;;;;;;;;;;5103044;28;20474;-71
2024/04/04 04:57:31;;;;;;;16.70;16.10;;;;;;;;;;5101456;28;21072;-70
2024/04/04 04:59:59;;;;;;;16.77;16.17;;;;;;;;;;5096990;28;20522;-71
2024/04/04 05:02:25;;;;;;;17.47;16.87;;;;;;;;;;5104082;28;21205;-70
2024/04/04 05:04:53;;;;;;;17.60;17.00;;;;;;;;;;5101801;28;20469;-70
2024/04/04 05:07:20;;;;;;;17.27;16.67;;;;;;;;;;5102821;28;20469;-69
2024/04/04 05:09:47;;;;;;;17.90;17.20;;;;;;;;;;5102951;28;20495;-70
2024/04/04 05:12:14;;;;;;;17.97;17.27;;;;;;;;;;5104003;28;20477;-69
2024/04/04 05:14:41;;;;;;;18.40;17.70;;;;;;;;;;5081560;28;20570;-70
2024/04/04 05:17:07;;;;;;;18.80;18.00;;;;;;;;;;5087131;28;20967;-71
2024/04/04 05:19:35;;;;;;;19.43;18.63;;;;;;;;;;5084919;28;20533;-71
2024/04/04 05:22:02;;;;;;;17.37;16.77;;;;;;;;;;5083110;28;20491;-70
2024/04/04 05:24:29;;;;;;;18.00;17.33;;;;;;;;;;5076453;28;20487;-70
2024/04/04 05:26:55;;;;;;;18.83;18.13;;;;;;;;;;5079951;28;20574;-70
2024/04/04 05:29:23;;;;;;;18.27;17.57;;;;;;;;;;5085616;28;20461;-72
2024/04/04 05:31:49;;;;;;;18.07;17.47;;;;;;;;;;5087145;28;20459;-70
2024/04/04 05:34:17;;;;;;;17.20;16.60;;;;;;;;;;5079925;28;20460;-71
2024/04/04 05:36:43;;;;;;;17.13;16.53;;;;;;;;;;5081869;28;20864;-70
2024/04/04 05:39:12;;;;;;;18.07;17.47;;;;;;;;;;5079944;28;20861;-71
2024/04/04 05:41:38;;;;;;;17.57;16.97;;;;;;;;;;5085756;28;20459;-71
2024/04/04 05:44:05;;;;;;;18.10;17.50;;;;;;;;;;5084143;28;22551;-70
2024/04/04 05:46:31;;;;;;;17.23;16.63;;;;;;;;;;5075834;28;20467;-71
2024/04/04 05:48:58;;;;;;;17.00;16.50;;;;;;;;;;5087233;28;20557;-69
2024/04/04 05:51:25;;;;;;;17.83;17.23;;;;;;;;;;5083583;28;20816;-70
2024/04/04 05:53:52;;;;;;;17.47;16.87;;;;;;;;;;5080774;28;20886;-71
2024/04/04 05:56:19;;;;;;;16.17;15.67;;;;;;;;;;5081070;28;20851;-70
2024/04/04 05:58:47;;;;;;;16.90;16.40;;;;;;;;;;5078564;28;20489;-71
2024/04/04 06:01:13;;;;;;;16.70;16.20;;;;;;;;;;5080698;28;21073;-72
2024/04/04 06:03:42;;;;;;;16.40;15.90;;;;;;;;;;5082748;28;20573;-71
2024/04/04 06:06:09;;;;;;;16.47;15.97;;;;;;;;;;5085636;28;20486;-72
2024/04/04 06:08:36;;;;;;;17.43;16.93;;;;;;;;;;5082125;28;20518;-71
2024/04/04 06:11:02;;;;;;;16.40;15.90;;;;;;;;;;5078549;28;20494;-71
2024/04/04 06:13:30;;;;;;;17.07;16.57;;;;;;;;;;5083227;28;20482;-70
2024/04/04 06:15:57;;;;;;;15.77;15.30;;;;;;;;;;5090065;28;20483;-70
2024/04/04 06:18:24;;;;;;;16.67;16.17;;;;;;;;;;5089196;28;20509;-71
2024/04/04 06:20:50;;;;;;;16.60;16.10;;;;;;;;;;5083610;28;20939;-71
2024/04/04 06:23:17;;;;;;;17.10;16.60;;;;;;;;;;5087750;28;20485;-72
2024/04/04 06:25:43;;;;;;;15.53;15.13;;;;;;;;;;5086433;28;20457;-72
2024/04/04 06:28:11;;;;;;;16.97;16.47;;;;;;;;;;5080496;28;20462;-71
2024/04/04 06:30:39;;;;;;;15.93;15.43;;;;;;;;;;5085500;28;20456;-72
2024/04/04 06:33:06;;;;;;;16.57;16.07;;;;;;;;;;5085323;28;20460;-72
2024/04/04 06:35:33;;;;;;;16.27;15.77;;;;;;;;;;5086844;28;20493;-71
2024/04/04 06:38:00;;;;;;;15.33;14.93;;;;;;;;;;5092614;28;20543;-71
2024/04/04 06:40:26;;;;;;;15.53;15.13;;;;;;;;;;5082908;28;20467;-72
2024/04/04 06:42:53;;;;;;;16.07;15.57;;;;;;;;;;5080255;28;20464;-71
2024/04/04 06:45:19;;;;;;;17.13;16.63;;;;;;;;;;5086792;28;20560;-71
2024/04/04 06:47:57;;;;;;;17.10;16.60;;;;;;;;;;5081138;28;21116;-70
2024/04/04 06:50:23;;;;;;;16.70;16.20;;;;;;;;;;5087172;28;20463;-70
2024/04/04 06:52:50;;;;;;;16.30;15.80;;;;;;;;;;5089446;28;20557;-72
2024/04/04 06:55:17;;;;;;;16.93;16.43;;;;;;;;;;5089504;28;20446;-71
2024/04/04 06:57:44;;;;;;;16.50;16.00;;;;;;;;;;5081543;28;20704;-71
2024/04/04 07:00:11;;;;;;;17.00;16.50;;;;;;;;;;5082080;28;20458;-72
2024/04/04 07:02:38;;;;;;;17.43;16.93;;;;;;;;;;5082126;28;20531;-71
2024/04/04 07:05:06;;;;;;;15.53;15.13;;;;;;;;;;5079430;28;20493;-72
2024/04/04 07:07:34;;;;;;;17.03;16.53;;;;;;;;;;5076772;28;20972;-72
2024/04/04 07:10:00;;;;;;;16.10;15.70;;;;;;;;;;5080296;28;20595;-71
2024/04/04 07:12:27;;;;;;;16.50;16.00;;;;;;;;;;5089209;28;20487;-72
2024/04/04 07:14:53;;;;;;;18.10;17.60;;;;;;;;;;5078561;28;20465;-72
2024/04/04 07:17:20;;;;;;;17.87;17.37;;;;;;;;;;5083843;28;20466;-71
2024/04/04 07:19:47;;;;;;;17.30;16.80;;;;;;;;;;5087328;28;20456;-71
2024/04/04 07:22:15;;;;;;;18.47;17.87;;;;;;;;;;5084064;28;20570;-71
2024/04/04 07:24:41;;;;;;;18.87;18.27;;;;;;;;;;5087119;28;20484;-71
2024/04/04 07:27:08;;;;;;;18.07;17.53;;;;;;;;;;5082950;28;20464;-70
2024/04/04 07:29:35;;;;;;;16.07;15.63;;;;;;;;;;5078984;28;20562;-71
2024/04/04 07:32:02;;;;;;;15.57;15.17;;;;;;;;;;5075843;28;20601;-72
2024/04/04 07:34:28;;;;;;;15.77;15.37;;;;;;;;;;5082524;28;20478;-72
2024/04/04 07:36:56;;;;;;;17.30;16.80;;;;;;;;;;5088220;28;20535;-72
2024/04/04 07:39:24;;;;;;;17.33;16.83;;;;;;;;;;5085472;28;20498;-72
2024/04/04 07:41:51;;;;;;;16.80;16.30;;;;;;;;;;5085064;28;20480;-73
2024/04/04 07:44:17;;;;;;;14.73;14.33;;;;;;;;;;5081024;28;20493;-72
2024/04/04 07:46:44;;;;;;;14.43;14.03;;;;;;;;;;5085861;28;20962;-73
2024/04/04 07:49:10;;;;;;;15.10;14.70;;;;;;;;;;5073900;28;20475;-73
2024/04/04 07:51:38;;;;;;;14.77;14.37;;;;;;;;;;5085191;28;20560;-72
2024/04/04 07:54:04;;;;;;;15.60;15.20;;;;;;;;;;5088698;28;20830;-72
2024/04/04 07:56:33;;;;;;;14.27;13.87;;;;;;;;;;5086302;28;20885;-72
2024/04/04 07:58:59;;;;;;;15.90;15.50;;;;;;;;;;5087437;28;20530;-73
2024/04/04 08:01:27;;;;;;;15.47;15.07;;;;;;;;;;5082043;28;20471;-72
2024/04/04 08:03:53;;;;;;;16.17;15.70;;;;;;;;;;5082205;28;20494;-70
2024/04/04 08:06:21;;;;;;;17.03;16.53;;;;;;;;;;5085185;28;20971;-72
2024/04/04 08:08:47;;;;;;;18.40;17.80;;;;;;;;;;5079686;28;20468;-71
2024/04/04 08:11:15;;;;;;;17.57;17.07;;;;;;;;;;5076200;28;20840;-71
2024/04/04 08:13:43;;;;;;;18.23;17.67;;;;;;;;;;5088750;28;20498;-72
2024/04/04 08:16:10;;;;;;;18.40;17.80;;;;;;;;;;5100256;28;20474;-73
2024/04/04 08:18:37;;;;;;;19.00;18.40;;;;;;;;;;5100269;28;21033;-71
2024/04/04 08:21:04;;;;;;;18.10;17.53;;;;;;;;;;5100530;28;20992;-71
2024/04/04 08:23:30;;;;;;;18.40;17.80;;;;;;;;;;5102121;28;20491;-72
2024/04/04 08:25:58;;;;;;;19.70;19.10;;;;;;;;;;5105859;27;20464;-76
2024/04/04 08:28:25;;;;;;;19.50;18.90;;;;;;;;;;5097856;28;20497;-73
2024/04/04 08:30:58;;;;;;;20.43;19.73;;;;;;;;;;5105152;28;20989;-70
2024/04/04 08:33:25;;;;;;;21.23;20.53;;;;;;;;;;5108169;28;20470;-74
2024/04/04 08:35:52;;;;;;;19.13;18.53;;;;;;;;;;5096015;28;20493;-70
2024/04/04 08:38:19;;;;;;;18.40;17.80;;;;;;;;;;5098846;28;20464;-69
2024/04/04 08:40:46;;;;;;;18.93;18.33;;;;;;;;;;5102547;28;20510;-72
2024/04/04 08:43:12;;;;;;;15.97;15.47;;;;;;;;;;5101036;28;20942;-71
2024/04/04 08:45:44;;;;;;;15.90;15.40;;;;;;;;;;5105906;27;21051;-71
2024/04/04 08:48:13;;;;;;;15.47;14.97;;;;;;;;;;5103195;28;20510;-71
2024/04/04 08:50:45;;;;;;;14.93;14.43;;;;;;;;;;5102648;28;20464;-74
2024/04/04 08:53:11;;;;;;;14.67;14.17;;;;;;;;;;5093617;28;20487;-70
2024/04/04 08:55:39;;;;;;;15.30;14.80;;;;;;;;;;5101473;28;20458;-70
2024/04/04 08:58:06;;;;;;;15.03;14.53;;;;;;;;;;5103143;28;20464;-72
2024/04/04 09:00:33;;;;;;;14.93;14.43;;;;;;;;;;5095576;28;20575;-71
2024/04/04 09:03:00;;;;;;;14.40;14.00;;;;;;;;;;5092651;28;20473;-72
2024/04/04 09:05:29;;;;;;;15.07;14.57;;;;;;;;;;5097012;28;20492;-71
2024/04/04 09:07:56;;;;;;;13.70;13.30;;;;;;;;;;5096606;28;20464;-71
2024/04/04 09:10:22;;;;;;;13.97;13.57;;;;;;;;;;5097637;28;20457;-73
2024/04/04 09:12:49;;;;;;;13.50;13.10;;;;;;;;;;5094402;28;20516;-73
2024/04/04 09:15:17;;;;;;;13.60;13.20;;;;;;;;;;5100785;28;20865;-70
2024/04/04 09:17:46;;;;;;;13.90;13.50;;;;;;;;;;5101499;28;20472;-72
2024/04/04 09:20:18;;;;;;;13.83;13.43;;;;;;;;;;5098887;28;20851;-70
2024/04/04 09:22:47;;;;;;;14.03;13.53;;;;;;;;;;5105600;28;20809;-72
2024/04/04 09:25:15;;;;;;;13.80;13.30;;;;;;;;;;5104316;28;21072;-70
2024/04/04 09:27:42;;;;;;;14.30;13.80;;;;;;;;;;5107536;28;20508;-70
2024/04/04 09:30:12;;;;;;;13.93;13.43;;;;;;;;;;5094911;28;20476;-70
2024/04/04 09:32:39;;;;;;;14.37;13.87;;;;;;;;;;5112734;27;20461;-70
2024/04/04 09:35:06;;;;;;;13.97;13.47;;;;;;;;;;5102140;28;20461;-70
2024/04/04 09:37:34;;;;;;;14.07;13.57;;;;;;;;;;5107465;28;20499;-70
2024/04/04 09:40:02;;;;;;;13.60;13.10;;;;;;;;;;5106189;28;20472;-69
2024/04/04 09:42:30;;;;;;;12.90;12.50;;;;;;;;;;5108559;28;20493;-72
2024/04/04 09:44:57;;;;;;;12.67;12.27;;;;;;;;;;5099601;28;20488;-70
2024/04/04 09:47:25;;;;;;;12.63;12.23;;;;;;;;;;5112499;28;20453;-70
2024/04/04 09:49:53;;;;;;;12.80;12.40;;;;;;;;;;5112319;28;20468;-70
2024/04/04 09:52:22;;;;;;;12.70;12.30;;;;;;;;;;5108762;28;20472;-70
2024/04/04 09:54:49;;;;;;;13.03;12.63;;;;;;;;;;5108122;28;20458;-72
2024/04/04 09:57:17;;;;;;;12.87;12.47;;;;;;;;;;5099389;28;20460;-70
2024/04/04 09:59:47;;;;;;;13.10;12.70;;;;;;;;;;5110590;28;20460;-70
2024/04/04 10:02:14;;;;;;;13.40;13.00;;;;;;;;;;5101734;28;20456;-70
2024/04/04 10:04:41;;;;;;;13.17;12.77;;;;;;;;;;5111419;28;20495;-72
2024/04/04 10:07:09;;;;;;;13.20;12.80;;;;;;;;;;5108586;28;20478;-70
2024/04/04 10:09:39;;;;;;;13.47;13.07;;;;;;;;;;5112269;28;20488;-70
2024/04/04 10:12:09;;;;;;;13.47;13.07;;;;;;;;;;5111767;27;20473;-71
2024/04/04 10:14:39;;;;;;;13.87;13.37;;;;;;;;;;5116232;27;20549;-70
2024/04/04 10:17:05;;;;;;;12.70;12.30;;;;;;;;;;5103593;28;20465;-71
2024/04/04 10:19:33;;;;;;;13.10;12.70;;;;;;;;;;5104234;28;20466;-70
2024/04/04 10:21:59;;;;;;;13.23;12.83;;;;;;;;;;5099595;28;20472;-71
2024/04/04 10:24:28;;;;;;;13.27;12.87;;;;;;;;;;5106241;28;20484;-70
2024/04/04 10:26:55;;;;;;;13.73;13.33;;;;;;;;;;5103453;28;20468;-71
2024/04/04 10:29:22;;;;;;;14.20;13.70;;;;;;;;;;5107655;28;20465;-73
2024/04/04 10:31:49;;;;;;;14.27;13.77;;;;;;;;;;5108855;27;20458;-70
2024/04/04 10:34:17;;;;;;;13.70;13.30;;;;;;;;;;5111711;28;20527;-72
2024/04/04 10:36:43;;;;;;;13.50;13.10;;;;;;;;;;5107983;28;20450;-70
2024/04/04 10:39:12;;;;;;;14.07;13.57;;;;;;;;;;5100258;28;20459;-71
2024/04/04 10:41:39;;;;;;;13.60;13.20;;;;;;;;;;5101604;28;20519;-70
2024/04/04 10:44:11;;;;;;;13.60;13.20;;;;;;;;;;5104814;28;20484;-70
2024/04/04 10:46:41;;;;;;;13.57;13.17;;;;;;;;;;5109086;28;20511;-71
2024/04/04 10:49:09;;;;;;;14.63;14.13;;;;;;;;;;5099534;28;20487;-73
2024/04/04 10:51:36;;;;;;;13.80;13.30;;;;;;;;;;5097521;28;20461;-72
2024/04/04 10:54:03;;;;;;;13.90;13.40;;;;;;;;;;5109484;28;20627;-73
2024/04/04 10:56:30;;;;;;;13.93;13.47;;;;;;;;;;5110992;27;20464;-71
2024/04/04 10:58:57;;;;;;;13.97;13.47;;;;;;;;;;5107993;28;20912;-72
2024/04/04 11:01:23;;;;;;;13.83;13.43;;;;;;;;;;5110594;28;20449;-71
2024/04/04 11:03:52;;;;;;;13.77;13.33;;;;;;;;;;5102460;28;20462;-71
2024/04/04 11:06:20;;;;;;;13.90;13.40;;;;;;;;;;5104356;28;20465;-70
2024/04/04 11:08:49;;;;;;;12.90;12.50;;;;;;;;;;5110542;27;20468;-73
2024/04/04 11:11:16;;;;;;;12.90;12.50;;;;;;;;;;5100842;28;20500;-71
2024/04/04 11:13:43;;;;;;;13.13;12.73;;;;;;;;;;5105585;28;20481;-70
2024/04/04 11:16:10;;;;;;;12.90;12.50;;;;;;;;;;5104127;28;20933;-69
2024/04/04 11:18:37;;;;;;;13.20;12.80;;;;;;;;;;5099899;28;20562;-70
2024/04/04 11:21:05;;;;;;;13.37;12.97;;;;;;;;;;5102782;28;20460;-71
2024/04/04 11:23:33;;;;;;;14.03;13.57;;;;;;;;;;5102936;28;21062;-71
2024/04/04 11:25:59;;;;;;;14.03;13.57;;;;;;;;;;5099410;28;20497;-70
2024/04/04 11:28:27;;;;;;;13.67;13.27;;;;;;;;;;5106504;28;20478;-70
2024/04/04 11:30:54;;;;;;;13.87;13.47;;;;;;;;;;5104068;28;20470;-70
2024/04/04 11:33:21;;;;;;;13.83;13.43;;;;;;;;;;5109258;28;20474;-70
2024/04/04 11:35:47;;;;;;;13.70;13.30;;;;;;;;;;5106211;28;20466;-70
2024/04/04 11:38:14;;;;;;;15.60;15.00;;;;;;;;;;5107914;28;20531;-70
2024/04/04 11:40:42;;;;;;;17.33;16.53;;;;;;;;;;5106152;28;20500;-69
2024/04/04 11:43:09;;;;;;;16.40;15.70;;;;;;;;;;5107254;28;20460;-70
2024/04/04 11:45:35;;;;;;;14.80;14.20;;;;;;;;;;5108205;28;20488;-71
2024/04/04 11:48:04;;;;;;;14.77;14.27;;;;;;;;;;5096803;28;20489;-71
2024/04/04 11:50:31;;;;;;;14.10;13.60;;;;;;;;;;5105889;28;20471;-71
2024/04/04 11:52:59;;;;;;;14.20;13.70;;;;;;;;;;5096846;28;20466;-70
2024/04/04 11:55:25;;;;;;;13.80;13.30;;;;;;;;;;5105188;28;20465;-70
2024/04/04 11:57:54;;;;;;;12.60;12.20;;;;;;;;;;5099050;28;20460;-70
2024/04/04 12:00:20;;;;;;;12.73;12.33;;;;;;;;;;5111172;27;20456;-69
2024/04/04 12:02:48;;;;;;;12.50;12.10;;;;;;;;;;5110306;27;20502;-70
2024/04/04 12:05:14;;;;;;;12.80;12.40;;;;;;;;;;5099983;28;20549;-70
2024/04/04 12:07:43;;;;;;;12.93;12.53;;;;;;;;;;5101498;28;20460;-70
2024/04/04 12:10:12;;;;;;;13.17;12.77;;;;;;;;;;5100830;28;20460;-70
2024/04/04 12:12:39;;;;;;;12.53;12.13;;;;;;;;;;5099694;28;20515;-72
2024/04/04 12:15:07;;;;;;;13.30;12.90;;;;;;;;;;5072731;28;20846;-70
2024/04/04 12:17:36;;;;;;;13.77;13.27;;;;;;;;;;5084131;28;20566;-72
2024/04/04 12:20:02;;;;;;;13.70;13.20;;;;;;;;;;5083968;28;20465;-71
2024/04/04 12:22:30;;;;;;;13.20;12.80;;;;;;;;;;5086265;28;20555;-71
2024/04/04 12:24:56;;;;;;;13.87;13.37;;;;;;;;;;5081526;28;20533;-71
2024/04/04 12:27:23;;;;;;;13.83;13.33;;;;;;;;;;5085698;28;20856;-72
2024/04/04 12:29:50;;;;;;;13.63;13.13;;;;;;;;;;5088567;28;20468;-73
2024/04/04 12:32:18;;;;;;;13.73;13.23;;;;;;;;;;5103512;28;20970;-71
2024/04/04 12:34:45;;;;;;;14.03;13.53;;;;;;;;;;5077570;28;20479;-71
2024/04/04 12:37:12;;;;;;;13.80;13.30;;;;;;;;;;5076115;28;20908;-73
2024/04/04 12:39:39;;;;;;;13.30;12.90;;;;;;;;;;5092715;28;20454;-71
2024/04/04 12:42:06;;;;;;;13.40;13.00;;;;;;;;;;5097193;28;20471;-71
2024/04/04 12:44:33;;;;;;;13.20;12.80;;;;;;;;;;5089224;28;20568;-71
2024/04/04 12:47:00;;;;;;;13.70;13.30;;;;;;;;;;5090973;28;20742;-71
2024/04/04 12:49:27;;;;;;;13.50;13.10;;;;;;;;;;5082478;28;20477;-71
2024/04/04 12:51:55;;;;;;;13.50;13.10;;;;;;;;;;5082548;28;20528;-70
2024/04/04 12:54:21;;;;;;;14.00;13.50;;;;;;;;;;5082768;28;20468;-71
2024/04/04 12:56:48;;;;;;;14.10;13.60;;;;;;;;;;5082147;28;20487;-72
2024/04/04 12:59:15;;;;;;;14.20;13.70;;;;;;;;;;5085853;28;20470;-70
2024/04/04 13:01:42;;;;;;;13.93;13.43;;;;;;;;;;5084256;28;20466;-71
2024/04/04 13:04:08;;;;;;;14.10;13.60;;;;;;;;;;5088055;28;20470;-71
2024/04/04 13:06:36;;;;;;;14.10;13.60;;;;;;;;;;5080822;28;20464;-69
2024/04/04 13:09:04;;;;;;;14.40;13.90;;;;;;;;;;5078744;28;20934;-71
2024/04/04 13:11:32;;;;;;;14.90;14.40;;;;;;;;;;5081885;28;20488;-69
2024/04/04 13:13:58;;;;;;;14.50;14.00;;;;;;;;;;5085571;28;20484;-72
2024/04/04 13:16:26;;;;;;;14.40;13.90;;;;;;;;;;5084080;28;21054;-70
2024/04/04 13:18:52;;;;;;;14.33;13.83;;;;;;;;;;5085536;28;20470;-69
2024/04/04 13:21:19;;;;;;;14.37;13.87;;;;;;;;;;5080460;28;20468;-70
2024/04/04 13:23:47;;;;;;;14.80;14.30;;;;;;;;;;5080878;28;20467;-71
2024/04/04 13:26:14;;;;;;;15.00;14.50;;;;;;;;;;5083282;28;20829;-71
2024/04/04 13:28:41;;;;;;;15.03;14.53;;;;;;;;;;5087972;28;20465;-71
2024/04/04 13:31:08;;;;;;;15.67;15.07;;;;;;;;;;5086077;28;20462;-71
2024/04/04 13:33:34;;;;;;;16.07;15.47;;;;;;;;;;5080510;28;20459;-71
2024/04/04 13:36:01;;;;;;;15.50;14.90;;;;;;;;;;5087323;28;20525;-72
2024/04/04 13:38:27;;;;;;;15.40;14.80;;;;;;;;;;5083547;28;20466;-73
2024/04/04 13:40:56;;;;;;;15.53;15.03;;;;;;;;;;5087594;28;20555;-70
2024/04/04 13:43:22;;;;;;;15.87;15.27;;;;;;;;;;5079067;28;20472;-70
2024/04/04 13:45:50;;;;;;;15.60;15.10;;;;;;;;;;5080433;28;21046;-69
2024/04/04 13:48:16;;;;;;;15.10;14.60;;;;;;;;;;5087341;28;20463;-72
2024/04/04 13:50:43;;;;;;;14.50;14.00;;;;;;;;;;5084160;28;20475;-72
2024/04/04 13:53:09;;;;;;;14.97;14.47;;;;;;;;;;5085232;28;20934;-70
2024/04/04 13:55:36;;;;;;;14.90;14.40;;;;;;;;;;5086723;28;20471;-72
2024/04/04 13:58:04;;;;;;;15.10;14.60;;;;;;;;;;5080947;28;20606;-70
2024/04/04 14:00:31;;;;;;;15.20;14.70;;;;;;;;;;5087941;28;20491;-70
2024/04/04 14:02:57;;;;;;;15.40;14.80;;;;;;;;;;5082132;28;20456;-70
2024/04/04 14:05:24;;;;;;;15.93;15.33;;;;;;;;;;5074827;28;20480;-70
2024/04/04 14:07:51;;;;;;;15.90;15.30;;;;;;;;;;5074485;28;20470;-68
2024/04/04 14:10:18;;;;;;;16.43;15.73;;;;;;;;;;5071058;28;20490;-69
2024/04/04 14:12:44;;;;;;;21.63;20.23;;;;;;;;;;5081123;28;20463;-70
2024/04/04 14:15:13;;;;;;;22.97;21.23;;;;;;;;;;5098751;28;20777;-69
2024/04/04 14:17:39;;;;;;;18.13;17.03;;;;;;;;;;5101161;28;20465;-69